Terminal Aerodrome Forecast
Issued by NWS Anchorage, AK

Home | Current Version | Previous Version | Text Only | Print | Product List | Glossary On
Versions: 1 2 3 4 5 6 7 8 9 10 11 12 13 14 15 16 17 18 19 20 21 22 23 24 25 26 27 28 29 30 31 32 33 34 35 36 37 38
000
FTAK31 PANC 291809 AAB
TAFANC
TAF AMD
PANC 291809Z 2918/3024 03005KT P6SM SCT070 BKN200
     FM292000 36006KT P6SM FEW035 BKN070
     FM300300 01007KT 5SM -SN BKN025 OVC050
     FM301600 35007KT P6SM VCSH SCT030 BKN050
     FM302000 01006KT P6SM SCT040 BKN070=

USA.gov is the U.S. government's official web portal to all federal, state and local government web resources and services.